sensor_id;sensor_type;location;lat;lon;timestamp;temperature;humidity
516;DHT22;244;48.508;9.052;2023-03-31T00:01:37;11.20;14.70
516;DHT22;244;48.508;9.052;2023-03-31T00:04:09;11.10;14.70
516;DHT22;244;48.508;9.052;2023-03-31T00:06:39;11.10;14.70
516;DHT22;244;48.508;9.052;2023-03-31T00:09:08;11.10;14.90
516;DHT22;244;48.508;9.052;2023-03-31T00:11:35;11.00;14.90
516;DHT22;244;48.508;9.052;2023-03-31T00:14:03;11.00;15.10
516;DHT22;244;48.508;9.052;2023-03-31T00:16:33;11.00;15.20
516;DHT22;244;48.508;9.052;2023-03-31T00:19:00;11.00;15.20
516;DHT22;244;48.508;9.052;2023-03-31T00:21:28;11.10;15.20
516;DHT22;244;48.508;9.052;2023-03-31T00:24:00;11.10;15.10
516;DHT22;244;48.508;9.052;2023-03-31T00:26:27;11.10;15.10
516;DHT22;244;48.508;9.052;2023-03-31T00:28:56;11.10;15.00
516;DHT22;244;48.508;9.052;2023-03-31T00:31:24;11.10;15.00
516;DHT22;244;48.508;9.052;2023-03-31T00:33:53;11.20;15.10
516;DHT22;244;48.508;9.052;2023-03-31T00:36:21;11.20;15.10
516;DHT22;244;48.508;9.052;2023-03-31T00:38:53;11.20;15.10
516;DHT22;244;48.508;9.052;2023-03-31T00:41:21;11.20;15.10
516;DHT22;244;48.508;9.052;2023-03-31T00:44:05;11.30;15.20
516;DHT22;244;48.508;9.052;2023-03-31T00:46:34;11.30;15.20
516;DHT22;244;48.508;9.052;2023-03-31T00:49:05;11.30;15.20
516;DHT22;244;48.508;9.052;2023-03-31T00:51:34;11.30;15.80
516;DHT22;244;48.508;9.052;2023-03-31T00:54:05;11.30;15.10
516;DHT22;244;48.508;9.052;2023-03-31T00:56:36;11.30;15.20
516;DHT22;244;48.508;9.052;2023-03-31T00:59:07;11.40;15.20
516;DHT22;244;48.508;9.052;2023-03-31T01:01:38;11.40;15.20
516;DHT22;244;48.508;9.052;2023-03-31T01:04:09;11.40;15.20
516;DHT22;244;48.508;9.052;2023-03-31T01:06:38;11.40;15.20
516;DHT22;244;48.508;9.052;2023-03-31T01:09:07;11.40;15.30
516;DHT22;244;48.508;9.052;2023-03-31T01:11:35;11.40;15.40
516;DHT22;244;48.508;9.052;2023-03-31T01:14:02;11.40;15.40
516;DHT22;244;48.508;9.052;2023-03-31T01:16:29;11.40;15.40
516;DHT22;244;48.508;9.052;2023-03-31T01:18:58;11.40;15.50
516;DHT22;244;48.508;9.052;2023-03-31T01:22:08;11.40;15.40
516;DHT22;244;48.508;9.052;2023-03-31T01:25:26;11.40;15.50
516;DHT22;244;48.508;9.052;2023-03-31T01:28:19;11.40;15.50
516;DHT22;244;48.508;9.052;2023-03-31T01:34:17;11.40;15.60
516;DHT22;244;48.508;9.052;2023-03-31T01:40:18;11.40;16.50
516;DHT22;244;48.508;9.052;2023-03-31T01:42:52;11.40;15.80
516;DHT22;244;48.508;9.052;2023-03-31T01:45:27;11.40;15.80
516;DHT22;244;48.508;9.052;2023-03-31T01:48:04;11.40;15.80
516;DHT22;244;48.508;9.052;2023-03-31T01:50:35;11.40;16.40
516;DHT22;244;48.508;9.052;2023-03-31T01:53:11;11.40;15.80
516;DHT22;244;48.508;9.052;2023-03-31T01:55:47;11.40;16.00
516;DHT22;244;48.508;9.052;2023-03-31T01:58:20;11.40;16.20
516;DHT22;244;48.508;9.052;2023-03-31T02:00:50;11.30;16.20
516;DHT22;244;48.508;9.052;2023-03-31T02:03:24;11.30;16.40
516;DHT22;244;48.508;9.052;2023-03-31T02:05:56;11.30;16.60
516;DHT22;244;48.508;9.052;2023-03-31T02:08:26;11.30;16.80
516;DHT22;244;48.508;9.052;2023-03-31T02:10:57;11.20;17.10
516;DHT22;244;48.508;9.052;2023-03-31T02:13:26;11.20;17.20
516;DHT22;244;48.508;9.052;2023-03-31T02:15:56;11.20;17.40
516;DHT22;244;48.508;9.052;2023-03-31T02:18:26;11.30;17.50
516;DHT22;244;48.508;9.052;2023-03-31T02:20:56;11.30;17.60
516;DHT22;244;48.508;9.052;2023-03-31T02:23:26;11.30;17.80
516;DHT22;244;48.508;9.052;2023-03-31T02:26:00;11.30;17.90
516;DHT22;244;48.508;9.052;2023-03-31T02:28:29;11.30;17.90
516;DHT22;244;48.508;9.052;2023-03-31T02:31:10;11.30;18.10
516;DHT22;244;48.508;9.052;2023-03-31T02:33:39;11.30;18.30
516;DHT22;244;48.508;9.052;2023-03-31T02:36:06;11.30;18.40
516;DHT22;244;48.508;9.052;2023-03-31T02:38:35;11.30;18.60
516;DHT22;244;48.508;9.052;2023-03-31T02:41:07;11.30;18.70
516;DHT22;244;48.508;9.052;2023-03-31T02:43:34;11.40;18.80
516;DHT22;244;48.508;9.052;2023-03-31T02:46:01;11.40;19.00
516;DHT22;244;48.508;9.052;2023-03-31T02:48:31;11.40;19.10
516;DHT22;244;48.508;9.052;2023-03-31T02:54:19;11.40;19.30
516;DHT22;244;48.508;9.052;2023-03-31T02:57:16;11.40;19.40
516;DHT22;244;48.508;9.052;2023-03-31T02:59:55;11.30;19.50
516;DHT22;244;48.508;9.052;2023-03-31T03:02:33;11.30;19.60
516;DHT22;244;48.508;9.052;2023-03-31T03:05:17;11.30;20.40
516;DHT22;244;48.508;9.052;2023-03-31T03:07:48;11.20;20.00
516;DHT22;244;48.508;9.052;2023-03-31T03:10:23;11.10;20.00
516;DHT22;244;48.508;9.052;2023-03-31T03:12:58;11.10;20.00
516;DHT22;244;48.508;9.052;2023-03-31T03:15:30;11.00;20.20
516;DHT22;244;48.508;9.052;2023-03-31T03:17:59;10.90;20.30
516;DHT22;244;48.508;9.052;2023-03-31T03:20:26;10.90;20.50
516;DHT22;244;48.508;9.052;2023-03-31T03:22:53;10.80;20.60
516;DHT22;244;48.508;9.052;2023-03-31T03:25:20;10.80;20.70
516;DHT22;244;48.508;9.052;2023-03-31T03:27:48;10.80;20.80
516;DHT22;244;48.508;9.052;2023-03-31T03:30:19;10.80;20.90
516;DHT22;244;48.508;9.052;2023-03-31T03:32:46;10.70;21.00
516;DHT22;244;48.508;9.052;2023-03-31T03:35:13;10.70;21.10
516;DHT22;244;48.508;9.052;2023-03-31T03:37:40;10.60;21.20
516;DHT22;244;48.508;9.052;2023-03-31T03:40:09;10.50;21.20
516;DHT22;244;48.508;9.052;2023-03-31T03:42:36;10.40;21.40
516;DHT22;244;48.508;9.052;2023-03-31T03:45:04;10.40;21.60
516;DHT22;244;48.508;9.052;2023-03-31T03:47:32;10.30;21.70
516;DHT22;244;48.508;9.052;2023-03-31T03:50:00;10.30;21.90
516;DHT22;244;48.508;9.052;2023-03-31T03:52:28;10.20;21.90
516;DHT22;244;48.508;9.052;2023-03-31T03:54:55;10.20;21.90
516;DHT22;244;48.508;9.052;2023-03-31T03:57:22;10.20;22.10
516;DHT22;244;48.508;9.052;2023-03-31T03:59:49;10.10;22.10
516;DHT22;244;48.508;9.052;2023-03-31T04:02:15;10.00;22.20
516;DHT22;244;48.508;9.052;2023-03-31T04:04:44;10.00;22.30
516;DHT22;244;48.508;9.052;2023-03-31T04:07:12;10.00;22.40
516;DHT22;244;48.508;9.052;2023-03-31T04:09:39;9.90;23.10
516;DHT22;244;48.508;9.052;2023-03-31T04:12:06;9.90;23.20
516;DHT22;244;48.508;9.052;2023-03-31T04:14:33;10.00;22.60
516;DHT22;244;48.508;9.052;2023-03-31T04:16:59;10.00;22.70
516;DHT22;244;48.508;9.052;2023-03-31T04:19:27;10.10;22.80
516;DHT22;244;48.508;9.052;2023-03-31T04:21:56;10.10;22.80
516;DHT22;244;48.508;9.052;2023-03-31T04:24:27;10.10;23.40
516;DHT22;244;48.508;9.052;2023-03-31T04:26:58;10.20;22.90
516;DHT22;244;48.508;9.052;2023-03-31T04:29:25;10.20;22.90
516;DHT22;244;48.508;9.052;2023-03-31T04:31:53;10.20;23.00
516;DHT22;244;48.508;9.052;2023-03-31T04:34:23;10.20;23.00
516;DHT22;244;48.508;9.052;2023-03-31T04:37:01;10.30;23.20
516;DHT22;244;48.508;9.052;2023-03-31T04:39:29;10.30;23.30
516;DHT22;244;48.508;9.052;2023-03-31T04:41:56;10.40;23.30
516;DHT22;244;48.508;9.052;2023-03-31T04:44:24;10.40;23.30
516;DHT22;244;48.508;9.052;2023-03-31T04:46:51;10.40;23.20
516;DHT22;244;48.508;9.052;2023-03-31T04:49:18;10.50;23.20
516;DHT22;244;48.508;9.052;2023-03-31T04:51:45;10.50;23.20
516;DHT22;244;48.508;9.052;2023-03-31T04:54:14;10.50;23.20
516;DHT22;244;48.508;9.052;2023-03-31T04:56:41;10.50;23.30
516;DHT22;244;48.508;9.052;2023-03-31T04:59:08;10.50;23.30
516;DHT22;244;48.508;9.052;2023-03-31T05:01:35;10.60;23.50
516;DHT22;244;48.508;9.052;2023-03-31T05:04:02;10.60;23.50
516;DHT22;244;48.508;9.052;2023-03-31T05:06:30;10.70;23.50
516;DHT22;244;48.508;9.052;2023-03-31T05:08:56;10.70;23.50
516;DHT22;244;48.508;9.052;2023-03-31T05:11:25;10.70;23.40
516;DHT22;244;48.508;9.052;2023-03-31T05:13:53;10.70;23.30
516;DHT22;244;48.508;9.052;2023-03-31T05:16:20;10.70;23.40
516;DHT22;244;48.508;9.052;2023-03-31T05:18:47;10.70;23.60
516;DHT22;244;48.508;9.052;2023-03-31T05:21:16;10.70;23.80
516;DHT22;244;48.508;9.052;2023-03-31T05:23:43;10.80;23.90
516;DHT22;244;48.508;9.052;2023-03-31T05:26:10;10.80;23.70
516;DHT22;244;48.508;9.052;2023-03-31T05:28:39;10.80;23.60
516;DHT22;244;48.508;9.052;2023-03-31T05:31:07;10.80;24.20
516;DHT22;244;48.508;9.052;2023-03-31T05:33:35;10.80;23.60
516;DHT22;244;48.508;9.052;2023-03-31T05:36:05;10.80;23.70
516;DHT22;244;48.508;9.052;2023-03-31T05:38:32;10.80;24.00
516;DHT22;244;48.508;9.052;2023-03-31T05:41:00;10.80;24.00
516;DHT22;244;48.508;9.052;2023-03-31T05:43:27;10.80;24.10
516;DHT22;244;48.508;9.052;2023-03-31T05:45:55;10.80;24.00
516;DHT22;244;48.508;9.052;2023-03-31T05:48:22;10.80;24.00
516;DHT22;244;48.508;9.052;2023-03-31T05:50:49;10.70;24.30
516;DHT22;244;48.508;9.052;2023-03-31T05:53:16;10.80;24.40
516;DHT22;244;48.508;9.052;2023-03-31T05:55:43;10.80;24.50
516;DHT22;244;48.508;9.052;2023-03-31T05:58:10;10.80;24.50
516;DHT22;244;48.508;9.052;2023-03-31T06:00:37;10.80;24.70
516;DHT22;244;48.508;9.052;2023-03-31T06:03:05;10.80;24.90
516;DHT22;244;48.508;9.052;2023-03-31T06:05:33;10.80;25.00
516;DHT22;244;48.508;9.052;2023-03-31T06:08:00;10.90;25.10
516;DHT22;244;48.508;9.052;2023-03-31T06:10:28;10.90;25.10
516;DHT22;244;48.508;9.052;2023-03-31T06:12:55;10.90;25.10
516;DHT22;244;48.508;9.052;2023-03-31T06:15:22;10.90;25.10
516;DHT22;244;48.508;9.052;2023-03-31T06:17:49;10.90;25.20
516;DHT22;244;48.508;9.052;2023-03-31T06:20:17;10.90;25.40
516;DHT22;244;48.508;9.052;2023-03-31T06:22:44;11.00;25.40
516;DHT22;244;48.508;9.052;2023-03-31T06:25:11;11.00;25.40
516;DHT22;244;48.508;9.052;2023-03-31T06:27:38;11.00;25.40
516;DHT22;244;48.508;9.052;2023-03-31T06:30:06;10.90;25.40
516;DHT22;244;48.508;9.052;2023-03-31T06:32:33;11.00;25.50
516;DHT22;244;48.508;9.052;2023-03-31T06:35:00;10.90;25.50
516;DHT22;244;48.508;9.052;2023-03-31T06:37:29;11.00;25.80
516;DHT22;244;48.508;9.052;2023-03-31T06:39:56;11.00;25.80
516;DHT22;244;48.508;9.052;2023-03-31T06:42:22;11.00;26.00
516;DHT22;244;48.508;9.052;2023-03-31T06:44:49;11.00;26.20
516;DHT22;244;48.508;9.052;2023-03-31T06:47:16;10.90;26.20
516;DHT22;244;48.508;9.052;2023-03-31T06:49:43;10.90;26.40
516;DHT22;244;48.508;9.052;2023-03-31T06:52:10;10.80;26.60
516;DHT22;244;48.508;9.052;2023-03-31T06:54:38;10.80;26.70
516;DHT22;244;48.508;9.052;2023-03-31T06:57:06;10.70;26.70
516;DHT22;244;48.508;9.052;2023-03-31T06:59:33;10.70;26.80
516;DHT22;244;48.508;9.052;2023-03-31T07:02:00;10.70;26.80
516;DHT22;244;48.508;9.052;2023-03-31T07:04:27;10.70;26.80
516;DHT22;244;48.508;9.052;2023-03-31T07:06:54;10.60;26.90
516;DHT22;244;48.508;9.052;2023-03-31T07:09:21;10.70;27.20
516;DHT22;244;48.508;9.052;2023-03-31T07:11:50;10.70;27.60
516;DHT22;244;48.508;9.052;2023-03-31T07:14:17;10.70;27.70
516;DHT22;244;48.508;9.052;2023-03-31T07:16:44;10.70;28.10
516;DHT22;244;48.508;9.052;2023-03-31T07:19:11;10.70;28.20
516;DHT22;244;48.508;9.052;2023-03-31T07:21:40;10.80;28.30
516;DHT22;244;48.508;9.052;2023-03-31T07:24:06;10.80;28.30
516;DHT22;244;48.508;9.052;2023-03-31T07:26:33;10.80;28.30
516;DHT22;244;48.508;9.052;2023-03-31T07:29:02;10.90;28.50
516;DHT22;244;48.508;9.052;2023-03-31T07:31:28;11.00;28.70
516;DHT22;244;48.508;9.052;2023-03-31T07:33:55;11.00;28.70
516;DHT22;244;48.508;9.052;2023-03-31T07:36:22;11.10;28.90
516;DHT22;244;48.508;9.052;2023-03-31T07:38:49;11.20;28.90
516;DHT22;244;48.508;9.052;2023-03-31T07:41:18;11.30;28.60
516;DHT22;244;48.508;9.052;2023-03-31T07:43:46;11.40;28.70
516;DHT22;244;48.508;9.052;2023-03-31T07:46:17;11.40;28.70
516;DHT22;244;48.508;9.052;2023-03-31T07:48:44;11.50;28.70
516;DHT22;244;48.508;9.052;2023-03-31T07:51:12;11.70;28.90
516;DHT22;244;48.508;9.052;2023-03-31T07:53:39;11.70;28.70
516;DHT22;244;48.508;9.052;2023-03-31T07:56:06;11.70;28.80
516;DHT22;244;48.508;9.052;2023-03-31T07:58:33;11.70;28.90
516;DHT22;244;48.508;9.052;2023-03-31T08:01:00;11.60;28.80
516;DHT22;244;48.508;9.052;2023-03-31T08:03:29;11.50;28.70
516;DHT22;244;48.508;9.052;2023-03-31T08:05:56;11.50;28.90
516;DHT22;244;48.508;9.052;2023-03-31T08:08:23;11.50;29.30
516;DHT22;244;48.508;9.052;2023-03-31T08:10:50;11.50;29.60
516;DHT22;244;48.508;9.052;2023-03-31T08:13:18;11.50;29.80
516;DHT22;244;48.508;9.052;2023-03-31T08:15:44;11.60;30.00
516;DHT22;244;48.508;9.052;2023-03-31T08:18:11;11.60;30.10
516;DHT22;244;48.508;9.052;2023-03-31T08:20:40;11.60;30.20
516;DHT22;244;48.508;9.052;2023-03-31T08:23:06;11.70;30.90
516;DHT22;244;48.508;9.052;2023-03-31T08:25:36;11.80;31.10
516;DHT22;244;48.508;9.052;2023-03-31T08:28:03;11.80;31.20
516;DHT22;244;48.508;9.052;2023-03-31T08:30:31;11.90;31.50
516;DHT22;244;48.508;9.052;2023-03-31T08:32:58;11.90;31.70
516;DHT22;244;48.508;9.052;2023-03-31T08:35:25;12.00;31.80
516;DHT22;244;48.508;9.052;2023-03-31T08:37:53;12.10;31.60
516;DHT22;244;48.508;9.052;2023-03-31T08:40:24;12.10;31.80
516;DHT22;244;48.508;9.052;2023-03-31T08:42:54;12.20;32.20
516;DHT22;244;48.508;9.052;2023-03-31T08:45:26;12.20;32.00
516;DHT22;244;48.508;9.052;2023-03-31T08:47:59;12.30;32.30
516;DHT22;244;48.508;9.052;2023-03-31T08:50:30;12.40;32.30
516;DHT22;244;48.508;9.052;2023-03-31T08:53:03;12.50;32.90
516;DHT22;244;48.508;9.052;2023-03-31T08:55:38;12.60;32.20
516;DHT22;244;48.508;9.052;2023-03-31T08:58:21;12.70;32.40
516;DHT22;244;48.508;9.052;2023-03-31T09:00:59;12.80;32.10
516;DHT22;244;48.508;9.052;2023-03-31T09:03:30;12.90;32.10
516;DHT22;244;48.508;9.052;2023-03-31T09:06:02;13.00;31.30
516;DHT22;244;48.508;9.052;2023-03-31T09:08:35;13.10;31.70
516;DHT22;244;48.508;9.052;2023-03-31T09:11:18;13.20;31.50
516;DHT22;244;48.508;9.052;2023-03-31T09:14:08;13.50;30.40
516;DHT22;244;48.508;9.052;2023-03-31T09:16:40;13.70;29.50
516;DHT22;244;48.508;9.052;2023-03-31T09:19:14;13.90;27.10
516;DHT22;244;48.508;9.052;2023-03-31T09:21:46;14.30;26.40
516;DHT22;244;48.508;9.052;2023-03-31T09:24:18;14.60;25.50
516;DHT22;244;48.508;9.052;2023-03-31T09:26:49;14.90;23.70
516;DHT22;244;48.508;9.052;2023-03-31T09:29:21;15.10;23.00
516;DHT22;244;48.508;9.052;2023-03-31T09:31:51;15.20;22.60
516;DHT22;244;48.508;9.052;2023-03-31T09:34:23;15.30;20.10
516;DHT22;244;48.508;9.052;2023-03-31T09:36:51;15.50;20.10
516;DHT22;244;48.508;9.052;2023-03-31T09:39:19;15.70;19.70
516;DHT22;244;48.508;9.052;2023-03-31T09:41:49;15.80;18.80
516;DHT22;244;48.508;9.052;2023-03-31T09:44:22;15.80;18.80
516;DHT22;244;48.508;9.052;2023-03-31T09:46:50;15.90;18.80
516;DHT22;244;48.508;9.052;2023-03-31T09:49:20;16.20;17.60
516;DHT22;244;48.508;9.052;2023-03-31T09:51:55;16.30;16.70
516;DHT22;244;48.508;9.052;2023-03-31T09:54:29;16.50;16.20
516;DHT22;244;48.508;9.052;2023-03-31T09:56:59;16.80;16.20
516;DHT22;244;48.508;9.052;2023-03-31T09:59:31;17.10;16.10
516;DHT22;244;48.508;9.052;2023-03-31T10:02:00;17.20;14.40
516;DHT22;244;48.508;9.052;2023-03-31T10:04:30;17.10;14.50
516;DHT22;244;48.508;9.052;2023-03-31T10:06:59;17.10;14.50
516;DHT22;244;48.508;9.052;2023-03-31T10:09:30;17.00;14.60
516;DHT22;244;48.508;9.052;2023-03-31T10:12:05;17.00;15.20
516;DHT22;244;48.508;9.052;2023-03-31T10:14:39;16.90;14.00
516;DHT22;244;48.508;9.052;2023-03-31T10:17:11;16.80;14.20
516;DHT22;244;48.508;9.052;2023-03-31T10:19:46;16.70;13.90
516;DHT22;244;48.508;9.052;2023-03-31T10:22:15;16.70;14.50
516;DHT22;244;48.508;9.052;2023-03-31T10:24:44;16.70;14.10
516;DHT22;244;48.508;9.052;2023-03-31T10:27:20;16.70;14.90
516;DHT22;244;48.508;9.052;2023-03-31T10:29:50;16.60;15.20
516;DHT22;244;48.508;9.052;2023-03-31T10:32:22;16.60;13.80
516;DHT22;244;48.508;9.052;2023-03-31T10:34:50;16.50;14.50
516;DHT22;244;48.508;9.052;2023-03-31T10:37:18;16.50;15.20
516;DHT22;244;48.508;9.052;2023-03-31T10:39:55;16.50;14.30
516;DHT22;244;48.508;9.052;2023-03-31T10:42:24;16.50;14.30
516;DHT22;244;48.508;9.052;2023-03-31T10:45:09;16.60;13.60
516;DHT22;244;48.508;9.052;2023-03-31T10:47:38;16.80;13.40
516;DHT22;244;48.508;9.052;2023-03-31T10:52:44;17.40;12.50
516;DHT22;244;48.508;9.052;2023-03-31T10:55:13;17.80;12.10
516;DHT22;244;48.508;9.052;2023-03-31T10:57:50;18.00;11.30
516;DHT22;244;48.508;9.052;2023-03-31T11:00:27;18.30;9.30
516;DHT22;244;48.508;9.052;2023-03-31T11:05:59;19.00;6.10
516;DHT22;244;48.508;9.052;2023-03-31T11:08:40;19.20;7.00
516;DHT22;244;48.508;9.052;2023-03-31T11:11:24;19.20;7.40
516;DHT22;244;48.508;9.052;2023-03-31T11:13:56;19.00;7.30
516;DHT22;244;48.508;9.052;2023-03-31T11:16:31;18.20;6.60
516;DHT22;244;48.508;9.052;2023-03-31T11:19:07;16.90;9.70
516;DHT22;244;48.508;9.052;2023-03-31T11:21:45;15.90;10.60
516;DHT22;244;48.508;9.052;2023-03-31T11:24:25;14.70;10.90
516;DHT22;244;48.508;9.052;2023-03-31T11:27:03;13.50;12.40
516;DHT22;244;48.508;9.052;2023-03-31T11:29:34;12.70;13.80
516;DHT22;244;48.508;9.052;2023-03-31T11:32:19;12.00;15.10
516;DHT22;244;48.508;9.052;2023-03-31T11:35:00;11.50;16.40
516;DHT22;244;48.508;9.052;2023-03-31T11:37:45;11.00;17.80
516;DHT22;244;48.508;9.052;2023-03-31T11:40:35;10.60;19.00
516;DHT22;244;48.508;9.052;2023-03-31T11:43:10;10.30;20.20
516;DHT22;244;48.508;9.052;2023-03-31T11:45:43;10.00;21.20
516;DHT22;244;48.508;9.052;2023-03-31T11:48:16;9.80;22.60
516;DHT22;244;48.508;9.052;2023-03-31T11:50:46;9.70;23.40
516;DHT22;244;48.508;9.052;2023-03-31T11:53:16;9.70;24.00
516;DHT22;244;48.508;9.052;2023-03-31T11:55:47;9.80;24.80
516;DHT22;244;48.508;9.052;2023-03-31T11:58:20;9.90;25.50
516;DHT22;244;48.508;9.052;2023-03-31T12:00:51;10.10;25.20
516;DHT22;244;48.508;9.052;2023-03-31T12:03:21;10.20;25.70
516;DHT22;244;48.508;9.052;2023-03-31T12:05:54;10.40;25.90
516;DHT22;244;48.508;9.052;2023-03-31T12:08:28;10.50;26.80
516;DHT22;244;48.508;9.052;2023-03-31T12:11:00;10.70;26.50
516;DHT22;244;48.508;9.052;2023-03-31T12:13:39;10.90;26.70
516;DHT22;244;48.508;9.052;2023-03-31T12:16:13;11.00;26.80
516;DHT22;244;48.508;9.052;2023-03-31T12:18:56;11.00;26.50
516;DHT22;244;48.508;9.052;2023-03-31T12:21:24;11.10;26.60
516;DHT22;244;48.508;9.052;2023-03-31T12:23:52;11.20;26.70
516;DHT22;244;48.508;9.052;2023-03-31T12:26:30;11.20;26.90
516;DHT22;244;48.508;9.052;2023-03-31T12:29:04;11.30;27.10
516;DHT22;244;48.508;9.052;2023-03-31T12:31:35;11.40;27.20
516;DHT22;244;48.508;9.052;2023-03-31T12:34:07;11.50;27.50
516;DHT22;244;48.508;9.052;2023-03-31T12:36:47;11.60;28.30
516;DHT22;244;48.508;9.052;2023-03-31T12:39:27;11.70;28.70
516;DHT22;244;48.508;9.052;2023-03-31T12:42:11;11.90;28.60
516;DHT22;244;48.508;9.052;2023-03-31T12:44:52;12.10;28.90
516;DHT22;244;48.508;9.052;2023-03-31T12:47:33;12.30;29.00
516;DHT22;244;48.508;9.052;2023-03-31T12:50:33;12.40;28.60
516;DHT22;244;48.508;9.052;2023-03-31T12:53:12;12.50;28.90
516;DHT22;244;48.508;9.052;2023-03-31T12:55:42;12.50;28.50
516;DHT22;244;48.508;9.052;2023-03-31T12:58:38;12.60;28.10
516;DHT22;244;48.508;9.052;2023-03-31T13:01:09;12.80;28.90
516;DHT22;244;48.508;9.052;2023-03-31T13:03:44;13.10;29.10
516;DHT22;244;48.508;9.052;2023-03-31T13:06:53;13.40;29.20
516;DHT22;244;48.508;9.052;2023-03-31T13:09:40;13.70;28.50
516;DHT22;244;48.508;9.052;2023-03-31T13:12:12;14.00;27.40
516;DHT22;244;48.508;9.052;2023-03-31T13:14:42;14.30;26.50
516;DHT22;244;48.508;9.052;2023-03-31T13:17:28;14.50;26.10
516;DHT22;244;48.508;9.052;2023-03-31T13:20:15;14.80;24.60
516;DHT22;244;48.508;9.052;2023-03-31T13:22:45;14.80;23.90
516;DHT22;244;48.508;9.052;2023-03-31T13:25:41;14.80;23.40
516;DHT22;244;48.508;9.052;2023-03-31T13:28:32;14.80;23.00
516;DHT22;244;48.508;9.052;2023-03-31T13:31:01;15.00;22.60
516;DHT22;244;48.508;9.052;2023-03-31T13:33:34;15.30;21.90
516;DHT22;244;48.508;9.052;2023-03-31T13:36:52;15.30;20.40
516;DHT22;244;48.508;9.052;2023-03-31T13:39:47;15.20;20.70
516;DHT22;244;48.508;9.052;2023-03-31T13:42:32;14.80;20.90
516;DHT22;244;48.508;9.052;2023-03-31T13:45:18;14.40;20.90
516;DHT22;244;48.508;9.052;2023-03-31T13:48:19;14.00;21.30
516;DHT22;244;48.508;9.052;2023-03-31T13:51:12;13.40;21.80
516;DHT22;244;48.508;9.052;2023-03-31T13:56:48;12.50;22.30
516;DHT22;244;48.508;9.052;2023-03-31T13:59:36;12.00;22.20
516;DHT22;244;48.508;9.052;2023-03-31T14:02:31;11.60;22.60
516;DHT22;244;48.508;9.052;2023-03-31T14:05:22;11.40;23.00
516;DHT22;244;48.508;9.052;2023-03-31T14:07:54;11.30;24.00
516;DHT22;244;48.508;9.052;2023-03-31T14:10:24;11.20;25.20
516;DHT22;244;48.508;9.052;2023-03-31T14:13:04;11.20;26.50
516;DHT22;244;48.508;9.052;2023-03-31T14:15:31;11.20;27.60
516;DHT22;244;48.508;9.052;2023-03-31T14:17:59;11.20;27.90
516;DHT22;244;48.508;9.052;2023-03-31T14:23:28;11.30;28.00
516;DHT22;244;48.508;9.052;2023-03-31T14:26:05;11.40;28.00
516;DHT22;244;48.508;9.052;2023-03-31T14:28:51;11.50;28.00
516;DHT22;244;48.508;9.052;2023-03-31T14:31:25;11.70;28.80
516;DHT22;244;48.508;9.052;2023-03-31T14:34:12;11.80;28.00
516;DHT22;244;48.508;9.052;2023-03-31T14:36:46;12.00;28.30
516;DHT22;244;48.508;9.052;2023-03-31T14:39:20;12.00;28.10
516;DHT22;244;48.508;9.052;2023-03-31T14:41:51;12.00;28.10
516;DHT22;244;48.508;9.052;2023-03-31T14:44:20;11.90;28.10
516;DHT22;244;48.508;9.052;2023-03-31T14:46:47;11.90;28.10
516;DHT22;244;48.508;9.052;2023-03-31T14:49:18;12.00;28.90
516;DHT22;244;48.508;9.052;2023-03-31T14:51:46;12.10;28.50
516;DHT22;244;48.508;9.052;2023-03-31T14:54:15;12.20;28.60
516;DHT22;244;48.508;9.052;2023-03-31T14:56:43;12.30;29.00
516;DHT22;244;48.508;9.052;2023-03-31T14:59:16;12.30;29.30
516;DHT22;244;48.508;9.052;2023-03-31T15:01:47;12.40;29.30
516;DHT22;244;48.508;9.052;2023-03-31T15:04:18;12.60;29.80
516;DHT22;244;48.508;9.052;2023-03-31T15:06:47;13.20;30.60
516;DHT22;244;48.508;9.052;2023-03-31T15:09:21;14.20;31.90
516;DHT22;244;48.508;9.052;2023-03-31T15:11:54;15.10;31.90
516;DHT22;244;48.508;9.052;2023-03-31T15:14:22;15.70;33.60
516;DHT22;244;48.508;9.052;2023-03-31T15:16:51;16.50;32.60
516;DHT22;244;48.508;9.052;2023-03-31T15:19:19;16.90;29.90
516;DHT22;244;48.508;9.052;2023-03-31T15:21:53;16.80;27.70
516;DHT22;244;48.508;9.052;2023-03-31T15:24:21;16.70;26.90
516;DHT22;244;48.508;9.052;2023-03-31T15:26:53;17.00;27.60
516;DHT22;244;48.508;9.052;2023-03-31T15:29:23;17.00;26.20
516;DHT22;244;48.508;9.052;2023-03-31T15:31:55;16.70;24.90
516;DHT22;244;48.508;9.052;2023-03-31T15:34:25;16.30;23.90
516;DHT22;244;48.508;9.052;2023-03-31T15:36:54;15.90;23.20
516;DHT22;244;48.508;9.052;2023-03-31T15:39:22;15.60;23.00
516;DHT22;244;48.508;9.052;2023-03-31T15:41:49;15.30;22.80
516;DHT22;244;48.508;9.052;2023-03-31T15:44:35;15.10;23.10
516;DHT22;244;48.508;9.052;2023-03-31T15:47:11;14.90;23.40
516;DHT22;244;48.508;9.052;2023-03-31T15:49:49;14.70;23.50
516;DHT22;244;48.508;9.052;2023-03-31T15:52:21;14.50;23.70
516;DHT22;244;48.508;9.052;2023-03-31T15:54:50;14.40;23.60
516;DHT22;244;48.508;9.052;2023-03-31T15:57:17;14.30;23.60
516;DHT22;244;48.508;9.052;2023-03-31T15:59:47;14.30;23.90
516;DHT22;244;48.508;9.052;2023-03-31T16:02:18;14.20;23.90
516;DHT22;244;48.508;9.052;2023-03-31T16:04:47;14.20;24.20
516;DHT22;244;48.508;9.052;2023-03-31T16:07:18;14.10;24.40
516;DHT22;244;48.508;9.052;2023-03-31T16:09:49;14.00;25.10
516;DHT22;244;48.508;9.052;2023-03-31T16:12:21;14.00;24.60
516;DHT22;244;48.508;9.052;2023-03-31T16:14:52;13.90;24.80
516;DHT22;244;48.508;9.052;2023-03-31T16:17:27;13.70;24.80
516;DHT22;244;48.508;9.052;2023-03-31T16:19:58;13.70;24.90
516;DHT22;244;48.508;9.052;2023-03-31T16:22:32;13.60;24.90
516;DHT22;244;48.508;9.052;2023-03-31T16:25:04;13.60;24.90
516;DHT22;244;48.508;9.052;2023-03-31T16:27:38;13.50;24.90
516;DHT22;244;48.508;9.052;2023-03-31T16:30:10;13.40;25.00
516;DHT22;244;48.508;9.052;2023-03-31T16:32:43;13.30;24.20
516;DHT22;244;48.508;9.052;2023-03-31T16:35:23;13.00;24.40
516;DHT22;244;48.508;9.052;2023-03-31T16:37:55;12.60;24.70
516;DHT22;244;48.508;9.052;2023-03-31T16:40:22;12.20;24.30
516;DHT22;244;48.508;9.052;2023-03-31T16:42:57;11.90;24.80
516;DHT22;244;48.508;9.052;2023-03-31T16:45:31;11.50;24.50
516;DHT22;244;48.508;9.052;2023-03-31T16:47:59;11.10;24.90
516;DHT22;244;48.508;9.052;2023-03-31T16:50:26;10.90;25.70
516;DHT22;244;48.508;9.052;2023-03-31T16:52:53;10.70;26.10
516;DHT22;244;48.508;9.052;2023-03-31T16:55:20;10.50;26.60
516;DHT22;244;48.508;9.052;2023-03-31T16:57:47;10.40;27.20
516;DHT22;244;48.508;9.052;2023-03-31T17:00:14;10.30;27.50
516;DHT22;244;48.508;9.052;2023-03-31T17:02:41;10.30;27.90
516;DHT22;244;48.508;9.052;2023-03-31T17:05:09;10.20;27.90
516;DHT22;244;48.508;9.052;2023-03-31T17:07:36;10.20;28.10
516;DHT22;244;48.508;9.052;2023-03-31T17:10:04;10.10;28.30
516;DHT22;244;48.508;9.052;2023-03-31T17:12:32;10.10;28.60
516;DHT22;244;48.508;9.052;2023-03-31T17:14:58;10.10;28.90
516;DHT22;244;48.508;9.052;2023-03-31T17:17:25;10.20;29.10
516;DHT22;244;48.508;9.052;2023-03-31T17:19:54;10.10;29.10
516;DHT22;244;48.508;9.052;2023-03-31T17:22:22;10.20;29.30
516;DHT22;244;48.508;9.052;2023-03-31T17:24:49;10.20;29.30
516;DHT22;244;48.508;9.052;2023-03-31T17:27:21;10.20;29.30